Terminal Aerodrome Forecast
Issued by NWS

Home | Current Version | Previous Version | Text Only | Print | Product List | Glossary On
Versions: 1 2 3 4 5 6 7 8 9 10 11 12 13 14 15 16 17 18 19 20 21
000
FTUS45 KBOU 140522
TAFAPA
TAF
KAPA 140522Z 1406/1506 35012KT 2SM -SN BR BKN009 OVC015
      TEMPO 1406/1408 1SM -SN BR OVC009
     FM140800 35012KT 3SM -SN BR BKN009 OVC020
     FM141000 33012KT P6SM SCT035 OVC050
     FM141300 32010KT P6SM SCT040 BKN060
     FM141700 31009KT P6SM SCT060 SCT120
     FM142200 24008KT P6SM FEW080 SCT150
     FM150200 21008KT P6SM FEW120 SCT200=

USA.gov is the U.S. government's official web portal to all federal, state and local government web resources and services.